sensor_id;sensor_type;location;lat;lon;timestamp;pressure;altitude;pressure_sealevel;temperature;humidity
13604;BME280;24578;48.264;11.436;2023-10-19T00:04:51;94733.28;;;6.09;100.00
13604;BME280;24578;48.264;11.436;2023-10-19T00:10:54;94731.66;;;6.08;100.00
13604;BME280;24578;48.264;11.436;2023-10-19T00:17:11;94721.59;;;6.05;100.00
13604;BME280;24578;48.264;11.436;2023-10-19T00:23:14;94715.31;;;6.09;100.00
13604;BME280;24578;48.264;11.436;2023-10-19T00:29:20;94705.00;;;6.21;100.00
13604;BME280;24578;48.264;11.436;2023-10-19T00:35:41;94702.19;;;6.24;100.00
13604;BME280;24578;48.264;11.436;2023-10-19T00:41:58;94688.59;;;6.33;100.00
13604;BME280;24578;48.264;11.436;2023-10-19T00:48:00;94691.53;;;6.29;100.00
13604;BME280;24578;48.264;11.436;2023-10-19T00:54:26;94709.75;;;6.25;100.00
13604;BME280;24578;48.264;11.436;2023-10-19T01:00:33;94691.78;;;6.25;100.00
13604;BME280;24578;48.264;11.436;2023-10-19T01:06:36;94723.06;;;6.31;100.00
13604;BME280;24578;48.264;11.436;2023-10-19T01:12:38;94690.22;;;6.34;100.00
13604;BME280;24578;48.264;11.436;2023-10-19T01:18:42;94707.97;;;6.37;100.00
13604;BME280;24578;48.264;11.436;2023-10-19T01:24:44;94694.03;;;6.40;100.00
13604;BME280;24578;48.264;11.436;2023-10-19T01:30:46;94682.41;;;6.36;100.00
13604;BME280;24578;48.264;11.436;2023-10-19T01:36:53;94686.63;;;6.25;100.00
13604;BME280;24578;48.264;11.436;2023-10-19T01:42:57;94702.88;;;6.26;100.00
13604;BME280;24578;48.264;11.436;2023-10-19T01:49:02;94693.41;;;6.27;100.00
13604;BME280;24578;48.264;11.436;2023-10-19T01:55:05;94699.25;;;6.29;100.00
13604;BME280;24578;48.264;11.436;2023-10-19T02:01:10;94671.44;;;6.34;100.00
13604;BME280;24578;48.264;11.436;2023-10-19T02:07:15;94678.31;;;6.33;100.00
13604;BME280;24578;48.264;11.436;2023-10-19T02:13:20;94675.16;;;6.30;100.00
13604;BME280;24578;48.264;11.436;2023-10-19T02:19:23;94670.59;;;6.33;100.00
13604;BME280;24578;48.264;11.436;2023-10-19T02:25:24;94672.44;;;6.43;100.00
13604;BME280;24578;48.264;11.436;2023-10-19T02:31:31;94654.78;;;6.49;100.00
13604;BME280;24578;48.264;11.436;2023-10-19T02:37:32;94649.09;;;6.55;100.00
13604;BME280;24578;48.264;11.436;2023-10-19T02:43:34;94647.13;;;6.59;100.00
13604;BME280;24578;48.264;11.436;2023-10-19T02:49:38;94633.88;;;6.64;100.00
13604;BME280;24578;48.264;11.436;2023-10-19T02:55:48;94639.59;;;6.67;100.00
13604;BME280;24578;48.264;11.436;2023-10-19T03:01:55;94624.53;;;6.63;100.00
13604;BME280;24578;48.264;11.436;2023-10-19T03:08:03;94626.19;;;6.64;100.00
13604;BME280;24578;48.264;11.436;2023-10-19T03:14:08;94610.84;;;6.62;100.00
13604;BME280;24578;48.264;11.436;2023-10-19T03:20:10;94594.75;;;6.60;100.00
13604;BME280;24578;48.264;11.436;2023-10-19T03:26:12;94585.34;;;6.70;100.00
13604;BME280;24578;48.264;11.436;2023-10-19T03:32:32;94580.13;;;6.61;100.00
13604;BME280;24578;48.264;11.436;2023-10-19T03:38:34;94591.91;;;6.63;100.00
13604;BME280;24578;48.264;11.436;2023-10-19T03:44:38;94600.84;;;6.59;100.00
13604;BME280;24578;48.264;11.436;2023-10-19T03:50:50;94600.78;;;6.70;100.00
13604;BME280;24578;48.264;11.436;2023-10-19T03:56:54;94604.78;;;6.63;100.00
13604;BME280;24578;48.264;11.436;2023-10-19T04:03:03;94608.63;;;6.69;100.00
13604;BME280;24578;48.264;11.436;2023-10-19T04:09:04;94598.88;;;6.73;100.00
13604;BME280;24578;48.264;11.436;2023-10-19T04:15:07;94580.63;;;6.76;100.00
13604;BME280;24578;48.264;11.436;2023-10-19T04:21:12;94582.00;;;6.80;100.00
13604;BME280;24578;48.264;11.436;2023-10-19T04:27:13;94565.91;;;6.88;100.00
13604;BME280;24578;48.264;11.436;2023-10-19T04:33:16;94561.91;;;6.95;100.00
13604;BME280;24578;48.264;11.436;2023-10-19T04:39:20;94546.06;;;6.99;100.00
13604;BME280;24578;48.264;11.436;2023-10-19T04:45:21;94547.44;;;7.04;100.00
13604;BME280;24578;48.264;11.436;2023-10-19T04:51:24;94544.88;;;7.04;100.00
13604;BME280;24578;48.264;11.436;2023-10-19T04:57:26;94553.13;;;7.07;100.00
13604;BME280;24578;48.264;11.436;2023-10-19T05:03:28;94545.28;;;7.09;100.00
13604;BME280;24578;48.264;11.436;2023-10-19T05:09:31;94539.19;;;7.10;100.00
13604;BME280;24578;48.264;11.436;2023-10-19T05:15:33;94540.06;;;7.30;100.00
13604;BME280;24578;48.264;11.436;2023-10-19T05:21:37;94546.78;;;7.11;100.00
13604;BME280;24578;48.264;11.436;2023-10-19T05:27:40;94536.22;;;7.05;100.00
13604;BME280;24578;48.264;11.436;2023-10-19T05:33:44;94540.41;;;7.06;100.00
13604;BME280;24578;48.264;11.436;2023-10-19T05:39:45;94534.19;;;7.08;100.00
13604;BME280;24578;48.264;11.436;2023-10-19T05:45:48;94528.88;;;7.10;100.00
13604;BME280;24578;48.264;11.436;2023-10-19T05:51:51;94541.22;;;7.06;100.00
13604;BME280;24578;48.264;11.436;2023-10-19T05:57:53;94529.53;;;7.02;100.00
13604;BME280;24578;48.264;11.436;2023-10-19T06:03:55;94529.44;;;7.04;100.00
13604;BME280;24578;48.264;11.436;2023-10-19T06:09:57;94524.97;;;7.06;100.00
13604;BME280;24578;48.264;11.436;2023-10-19T06:16:02;94520.91;;;7.13;100.00
13604;BME280;24578;48.264;11.436;2023-10-19T06:22:04;94532.06;;;7.23;100.00
13604;BME280;24578;48.264;11.436;2023-10-19T06:28:06;94523.53;;;7.32;100.00
13604;BME280;24578;48.264;11.436;2023-10-19T06:34:08;94515.97;;;7.51;100.00
13604;BME280;24578;48.264;11.436;2023-10-19T06:40:13;94519.63;;;7.87;100.00
13604;BME280;24578;48.264;11.436;2023-10-19T06:46:18;94514.63;;;8.05;100.00
13604;BME280;24578;48.264;11.436;2023-10-19T06:52:20;94512.56;;;8.19;100.00
13604;BME280;24578;48.264;11.436;2023-10-19T06:58:21;94515.03;;;8.68;100.00
13604;BME280;24578;48.264;11.436;2023-10-19T07:04:23;94504.34;;;9.19;100.00
13604;BME280;24578;48.264;11.436;2023-10-19T07:10:25;94520.47;;;9.49;100.00
13604;BME280;24578;48.264;11.436;2023-10-19T07:16:28;94510.72;;;9.97;100.00
13604;BME280;24578;48.264;11.436;2023-10-19T07:22:32;94508.16;;;11.02;100.00
13604;BME280;24578;48.264;11.436;2023-10-19T07:28:34;94506.91;;;11.15;100.00
13604;BME280;24578;48.264;11.436;2023-10-19T07:34:40;94509.56;;;10.62;100.00
13604;BME280;24578;48.264;11.436;2023-10-19T07:40:42;94519.38;;;10.32;100.00
13604;BME280;24578;48.264;11.436;2023-10-19T07:46:45;94513.41;;;10.31;100.00
13604;BME280;24578;48.264;11.436;2023-10-19T07:52:49;94501.88;;;10.70;100.00
13604;BME280;24578;48.264;11.436;2023-10-19T07:58:52;94481.13;;;10.96;100.00
13604;BME280;24578;48.264;11.436;2023-10-19T08:04:54;94477.97;;;11.27;100.00
13604;BME280;24578;48.264;11.436;2023-10-19T08:10:57;94478.50;;;11.48;100.00
13604;BME280;24578;48.264;11.436;2023-10-19T08:16:59;94474.47;;;11.95;100.00
13604;BME280;24578;48.264;11.436;2023-10-19T08:23:00;94468.00;;;12.24;100.00
13604;BME280;24578;48.264;11.436;2023-10-19T08:29:08;94474.63;;;12.34;100.00
13604;BME280;24578;48.264;11.436;2023-10-19T08:35:15;94464.19;;;12.68;100.00
13604;BME280;24578;48.264;11.436;2023-10-19T08:41:19;94454.84;;;12.98;100.00
13604;BME280;24578;48.264;11.436;2023-10-19T08:47:21;94464.78;;;13.18;100.00
13604;BME280;24578;48.264;11.436;2023-10-19T08:53:27;94459.94;;;13.15;100.00
13604;BME280;24578;48.264;11.436;2023-10-19T08:59:30;94462.47;;;13.31;100.00
13604;BME280;24578;48.264;11.436;2023-10-19T09:05:32;94465.34;;;13.45;100.00
13604;BME280;24578;48.264;11.436;2023-10-19T09:11:34;94463.53;;;13.45;100.00
13604;BME280;24578;48.264;11.436;2023-10-19T09:17:36;94467.28;;;13.43;100.00
13604;BME280;24578;48.264;11.436;2023-10-19T09:23:38;94463.22;;;13.40;100.00
13604;BME280;24578;48.264;11.436;2023-10-19T09:29:40;94461.59;;;13.39;100.00
13604;BME280;24578;48.264;11.436;2023-10-19T09:35:46;94457.22;;;13.39;100.00
13604;BME280;24578;48.264;11.436;2023-10-19T09:41:50;94455.84;;;13.75;100.00
13604;BME280;24578;48.264;11.436;2023-10-19T09:47:54;94443.59;;;14.37;100.00
13604;BME280;24578;48.264;11.436;2023-10-19T09:54:26;94434.50;;;14.71;100.00
13604;BME280;24578;48.264;11.436;2023-10-19T10:00:29;94420.03;;;15.20;100.00
13604;BME280;24578;48.264;11.436;2023-10-19T10:07:02;94427.63;;;16.24;100.00
13604;BME280;24578;48.264;11.436;2023-10-19T10:19:32;94389.00;;;17.78;100.00
13604;BME280;24578;48.264;11.436;2023-10-19T10:25:34;94391.03;;;17.96;100.00
13604;BME280;24578;48.264;11.436;2023-10-19T10:31:40;94397.41;;;17.40;100.00
13604;BME280;24578;48.264;11.436;2023-10-19T10:37:53;94387.47;;;17.15;100.00
13604;BME280;24578;48.264;11.436;2023-10-19T10:43:57;94378.00;;;16.59;100.00
13604;BME280;24578;48.264;11.436;2023-10-19T10:50:00;94365.09;;;16.44;100.00
13604;BME280;24578;48.264;11.436;2023-10-19T10:56:02;94366.94;;;16.50;100.00
13604;BME280;24578;48.264;11.436;2023-10-19T11:02:17;94363.88;;;16.47;100.00
13604;BME280;24578;48.264;11.436;2023-10-19T11:08:24;94348.16;;;16.33;100.00
13604;BME280;24578;48.264;11.436;2023-10-19T11:14:26;94338.25;;;16.22;100.00
13604;BME280;24578;48.264;11.436;2023-10-19T11:20:27;94349.00;;;16.05;100.00
13604;BME280;24578;48.264;11.436;2023-10-19T11:26:29;94354.75;;;15.72;100.00
13604;BME280;24578;48.264;11.436;2023-10-19T11:32:37;94332.28;;;15.49;100.00
13604;BME280;24578;48.264;11.436;2023-10-19T11:38:43;94320.91;;;15.29;100.00
13604;BME280;24578;48.264;11.436;2023-10-19T11:44:45;94289.78;;;15.27;100.00
13604;BME280;24578;48.264;11.436;2023-10-19T11:50:47;94275.13;;;15.48;100.00
13604;BME280;24578;48.264;11.436;2023-10-19T11:56:49;94259.41;;;15.63;100.00
13604;BME280;24578;48.264;11.436;2023-10-19T12:02:51;94281.09;;;16.34;100.00
13604;BME280;24578;48.264;11.436;2023-10-19T12:08:53;94262.03;;;17.22;100.00
13604;BME280;24578;48.264;11.436;2023-10-19T12:14:57;94289.56;;;17.99;100.00
13604;BME280;24578;48.264;11.436;2023-10-19T12:20:59;94252.91;;;18.58;100.00
13604;BME280;24578;48.264;11.436;2023-10-19T12:27:02;94241.50;;;18.77;100.00
13604;BME280;24578;48.264;11.436;2023-10-19T12:33:03;94242.06;;;18.47;100.00
13604;BME280;24578;48.264;11.436;2023-10-19T12:39:13;94240.31;;;18.41;100.00
13604;BME280;24578;48.264;11.436;2023-10-19T12:45:34;94225.22;;;18.75;100.00
13604;BME280;24578;48.264;11.436;2023-10-19T12:51:38;94213.78;;;19.27;100.00
13604;BME280;24578;48.264;11.436;2023-10-19T12:57:43;94207.81;;;19.63;100.00
13604;BME280;24578;48.264;11.436;2023-10-19T13:03:45;94224.47;;;19.00;100.00
13604;BME280;24578;48.264;11.436;2023-10-19T13:09:47;94222.88;;;18.92;100.00
13604;BME280;24578;48.264;11.436;2023-10-19T13:15:50;94224.59;;;18.80;100.00
13604;BME280;24578;48.264;11.436;2023-10-19T13:29:15;94221.22;;;18.66;100.00
13604;BME280;24578;48.264;11.436;2023-10-19T13:35:16;94218.22;;;18.23;100.00
13604;BME280;24578;48.264;11.436;2023-10-19T13:41:19;94225.97;;;17.78;100.00
13604;BME280;24578;48.264;11.436;2023-10-19T13:47:21;94236.69;;;17.23;100.00
13604;BME280;24578;48.264;11.436;2023-10-19T13:53:23;94234.44;;;16.86;100.00
13604;BME280;24578;48.264;11.436;2023-10-19T13:59:24;94240.56;;;16.51;100.00
13604;BME280;24578;48.264;11.436;2023-10-19T14:05:27;94250.50;;;16.21;100.00
13604;BME280;24578;48.264;11.436;2023-10-19T14:11:29;94265.88;;;16.02;100.00
13604;BME280;24578;48.264;11.436;2023-10-19T14:17:31;94244.94;;;15.89;100.00
13604;BME280;24578;48.264;11.436;2023-10-19T14:30:27;94159.50;;;15.62;100.00
13604;BME280;24578;48.264;11.436;2023-10-19T14:36:29;94178.34;;;15.29;100.00
13604;BME280;24578;48.264;11.436;2023-10-19T14:42:31;94179.78;;;15.32;100.00
13604;BME280;24578;48.264;11.436;2023-10-19T14:48:34;94185.16;;;15.59;100.00
13604;BME280;24578;48.264;11.436;2023-10-19T14:54:37;94192.84;;;15.74;100.00
13604;BME280;24578;48.264;11.436;2023-10-19T15:00:38;94202.47;;;15.73;100.00
13604;BME280;24578;48.264;11.436;2023-10-19T15:06:44;94191.50;;;15.49;100.00
13604;BME280;24578;48.264;11.436;2023-10-19T15:12:45;94196.03;;;15.34;100.00
13604;BME280;24578;48.264;11.436;2023-10-19T15:18:47;94204.19;;;15.24;100.00
13604;BME280;24578;48.264;11.436;2023-10-19T15:24:52;94191.00;;;15.04;100.00
13604;BME280;24578;48.264;11.436;2023-10-19T15:30:53;94175.63;;;14.87;100.00
13604;BME280;24578;48.264;11.436;2023-10-19T15:36:55;94180.09;;;14.72;100.00
13604;BME280;24578;48.264;11.436;2023-10-19T15:42:57;94164.59;;;14.64;100.00
13604;BME280;24578;48.264;11.436;2023-10-19T15:49:01;94164.28;;;14.52;100.00
13604;BME280;24578;48.264;11.436;2023-10-19T15:55:03;94152.56;;;14.41;100.00
13604;BME280;24578;48.264;11.436;2023-10-19T16:01:05;94136.75;;;14.21;100.00
13604;BME280;24578;48.264;11.436;2023-10-19T16:07:11;94147.38;;;14.04;100.00
13604;BME280;24578;48.264;11.436;2023-10-19T16:13:13;94145.81;;;13.88;100.00
13604;BME280;24578;48.264;11.436;2023-10-19T16:19:15;94127.47;;;13.75;100.00
13604;BME280;24578;48.264;11.436;2023-10-19T16:25:16;94149.59;;;13.55;100.00
13604;BME280;24578;48.264;11.436;2023-10-19T16:31:18;94152.84;;;13.43;100.00
13604;BME280;24578;48.264;11.436;2023-10-19T16:37:20;94144.84;;;13.29;100.00
13604;BME280;24578;48.264;11.436;2023-10-19T16:43:24;94127.38;;;13.23;100.00
13604;BME280;24578;48.264;11.436;2023-10-19T16:49:26;94126.56;;;13.07;100.00
13604;BME280;24578;48.264;11.436;2023-10-19T16:55:27;94118.72;;;12.92;100.00
13604;BME280;24578;48.264;11.436;2023-10-19T17:01:29;94122.50;;;12.75;100.00
13604;BME280;24578;48.264;11.436;2023-10-19T17:07:31;94136.75;;;12.56;100.00
13604;BME280;24578;48.264;11.436;2023-10-19T17:13:35;94144.50;;;12.41;100.00
13604;BME280;24578;48.264;11.436;2023-10-19T17:19:38;94132.94;;;12.20;100.00
13604;BME280;24578;48.264;11.436;2023-10-19T17:25:39;94137.09;;;11.98;100.00
13604;BME280;24578;48.264;11.436;2023-10-19T17:31:42;94130.84;;;11.84;100.00
13604;BME280;24578;48.264;11.436;2023-10-19T17:37:44;94125.91;;;11.74;100.00
13604;BME280;24578;48.264;11.436;2023-10-19T17:43:46;94123.03;;;11.61;100.00
13604;BME280;24578;48.264;11.436;2023-10-19T17:49:47;94113.72;;;11.43;100.00
13604;BME280;24578;48.264;11.436;2023-10-19T17:55:52;94109.06;;;11.30;100.00
13604;BME280;24578;48.264;11.436;2023-10-19T18:01:55;94101.81;;;11.17;100.00
13604;BME280;24578;48.264;11.436;2023-10-19T18:07:56;94104.13;;;11.04;100.00
13604;BME280;24578;48.264;11.436;2023-10-19T18:13:58;94099.94;;;10.94;100.00
13604;BME280;24578;48.264;11.436;2023-10-19T18:20:00;94085.75;;;10.82;100.00
13604;BME280;24578;48.264;11.436;2023-10-19T18:26:02;94051.94;;;10.75;100.00
13604;BME280;24578;48.264;11.436;2023-10-19T18:32:04;94033.69;;;10.69;100.00
13604;BME280;24578;48.264;11.436;2023-10-19T18:38:06;94023.19;;;10.62;100.00
13604;BME280;24578;48.264;11.436;2023-10-19T18:44:07;94008.50;;;10.54;100.00
13604;BME280;24578;48.264;11.436;2023-10-19T18:50:10;93990.88;;;10.58;100.00
13604;BME280;24578;48.264;11.436;2023-10-19T18:56:32;93995.22;;;10.57;100.00
13604;BME280;24578;48.264;11.436;2023-10-19T19:02:37;94010.28;;;10.54;100.00
13604;BME280;24578;48.264;11.436;2023-10-19T19:08:39;94019.66;;;10.55;100.00
13604;BME280;24578;48.264;11.436;2023-10-19T19:14:42;94019.50;;;10.48;100.00
13604;BME280;24578;48.264;11.436;2023-10-19T19:20:43;94005.28;;;10.44;100.00
13604;BME280;24578;48.264;11.436;2023-10-19T19:26:45;94004.97;;;10.39;100.00
13604;BME280;24578;48.264;11.436;2023-10-19T19:32:47;94008.97;;;10.33;100.00
13604;BME280;24578;48.264;11.436;2023-10-19T19:38:48;94020.16;;;10.33;100.00
13604;BME280;24578;48.264;11.436;2023-10-19T19:44:50;94005.44;;;10.34;100.00
13604;BME280;24578;48.264;11.436;2023-10-19T19:50:52;93995.75;;;10.36;100.00
13604;BME280;24578;48.264;11.436;2023-10-19T19:56:54;93986.06;;;10.38;100.00
13604;BME280;24578;48.264;11.436;2023-10-19T20:02:56;93987.38;;;10.42;100.00
13604;BME280;24578;48.264;11.436;2023-10-19T20:08:58;93979.25;;;10.45;100.00
13604;BME280;24578;48.264;11.436;2023-10-19T20:15:00;93979.09;;;10.47;100.00
13604;BME280;24578;48.264;11.436;2023-10-19T20:21:01;93969.22;;;10.50;100.00
13604;BME280;24578;48.264;11.436;2023-10-19T20:27:04;93965.81;;;10.58;100.00
13604;BME280;24578;48.264;11.436;2023-10-19T20:33:06;93950.94;;;10.60;100.00
13604;BME280;24578;48.264;11.436;2023-10-19T20:39:09;93946.72;;;10.59;100.00
13604;BME280;24578;48.264;11.436;2023-10-19T20:45:15;93914.72;;;10.60;100.00
13604;BME280;24578;48.264;11.436;2023-10-19T20:51:20;93897.88;;;10.64;100.00
13604;BME280;24578;48.264;11.436;2023-10-19T20:57:21;93878.13;;;10.72;100.00
13604;BME280;24578;48.264;11.436;2023-10-19T21:03:23;93874.56;;;10.73;100.00
13604;BME280;24578;48.264;11.436;2023-10-19T21:09:25;93888.00;;;10.68;100.00
13604;BME280;24578;48.264;11.436;2023-10-19T21:15:28;93871.66;;;10.68;100.00
13604;BME280;24578;48.264;11.436;2023-10-19T21:21:33;93887.34;;;10.66;100.00
13604;BME280;24578;48.264;11.436;2023-10-19T21:27:35;93915.50;;;10.61;100.00
13604;BME280;24578;48.264;11.436;2023-10-19T21:33:37;93898.72;;;10.57;100.00
13604;BME280;24578;48.264;11.436;2023-10-19T21:39:38;93870.28;;;10.57;100.00
13604;BME280;24578;48.264;11.436;2023-10-19T21:45:40;93848.25;;;10.61;100.00
13604;BME280;24578;48.264;11.436;2023-10-19T21:51:42;93827.44;;;10.54;100.00
13604;BME280;24578;48.264;11.436;2023-10-19T21:57:44;93816.09;;;10.55;100.00
13604;BME280;24578;48.264;11.436;2023-10-19T22:03:46;93784.81;;;10.42;100.00
13604;BME280;24578;48.264;11.436;2023-10-19T22:09:50;93780.81;;;10.31;100.00
13604;BME280;24578;48.264;11.436;2023-10-19T22:15:53;93773.38;;;10.28;100.00
13604;BME280;24578;48.264;11.436;2023-10-19T22:21:55;93760.00;;;10.24;100.00
13604;BME280;24578;48.264;11.436;2023-10-19T22:27:57;93735.09;;;10.23;100.00
13604;BME280;24578;48.264;11.436;2023-10-19T22:33:58;93751.31;;;10.17;100.00
13604;BME280;24578;48.264;11.436;2023-10-19T22:40:00;93745.19;;;10.10;100.00
13604;BME280;24578;48.264;11.436;2023-10-19T22:46:05;93734.22;;;10.08;100.00
13604;BME280;24578;48.264;11.436;2023-10-19T22:52:07;93728.13;;;10.00;100.00
13604;BME280;24578;48.264;11.436;2023-10-19T22:58:09;93719.75;;;9.90;100.00
13604;BME280;24578;48.264;11.436;2023-10-19T23:04:11;93723.31;;;9.89;100.00
13604;BME280;24578;48.264;11.436;2023-10-19T23:10:13;93712.06;;;9.82;100.00
13604;BME280;24578;48.264;11.436;2023-10-19T23:16:19;93694.94;;;9.81;100.00
13604;BME280;24578;48.264;11.436;2023-10-19T23:22:24;93687.50;;;9.86;100.00
13604;BME280;24578;48.264;11.436;2023-10-19T23:28:26;93691.56;;;9.80;100.00
13604;BME280;24578;48.264;11.436;2023-10-19T23:34:31;93693.31;;;9.80;100.00
13604;BME280;24578;48.264;11.436;2023-10-19T23:40:34;93668.13;;;9.82;100.00
13604;BME280;24578;48.264;11.436;2023-10-19T23:46:36;93660.84;;;9.85;100.00
13604;BME280;24578;48.264;11.436;2023-10-19T23:52:38;93660.38;;;9.82;100.00
13604;BME280;24578;48.264;11.436;2023-10-19T23:58:39;93648.09;;;9.84;100.00
